sensor_id;sensor_type;location;lat;lon;timestamp;P1;durP1;ratioP1;P2;durP2;ratioP2
4486;SDS011;2256;48.740;9.106;2023-08-20T00:01:23;16.50;;;9.70;;
4486;SDS011;2256;48.740;9.106;2023-08-20T00:03:51;16.10;;;9.67;;
4486;SDS011;2256;48.740;9.106;2023-08-20T00:06:19;18.67;;;11.77;;
4486;SDS011;2256;48.740;9.106;2023-08-20T00:08:46;12.30;;;9.20;;
4486;SDS011;2256;48.740;9.106;2023-08-20T00:11:15;31.10;;;11.57;;
4486;SDS011;2256;48.740;9.106;2023-08-20T00:13:42;21.17;;;10.70;;
4486;SDS011;2256;48.740;9.106;2023-08-20T00:16:10;15.37;;;9.80;;
4486;SDS011;2256;48.740;9.106;2023-08-20T00:18:37;22.97;;;9.80;;
4486;SDS011;2256;48.740;9.106;2023-08-20T00:21:04;13.13;;;9.03;;
4486;SDS011;2256;48.740;9.106;2023-08-20T00:23:32;14.20;;;9.53;;
4486;SDS011;2256;48.740;9.106;2023-08-20T00:25:59;14.87;;;9.60;;
4486;SDS011;2256;48.740;9.106;2023-08-20T00:28:28;15.97;;;9.13;;
4486;SDS011;2256;48.740;9.106;2023-08-20T00:30:55;21.93;;;9.00;;
4486;SDS011;2256;48.740;9.106;2023-08-20T00:33:22;18.00;;;9.17;;
4486;SDS011;2256;48.740;9.106;2023-08-20T00:35:49;14.90;;;9.47;;
4486;SDS011;2256;48.740;9.106;2023-08-20T00:38:16;12.70;;;9.27;;
4486;SDS011;2256;48.740;9.106;2023-08-20T00:40:43;22.80;;;9.47;;
4486;SDS011;2256;48.740;9.106;2023-08-20T00:43:09;16.13;;;9.47;;
4486;SDS011;2256;48.740;9.106;2023-08-20T00:45:37;16.03;;;9.63;;
4486;SDS011;2256;48.740;9.106;2023-08-20T00:48:06;15.90;;;8.20;;
4486;SDS011;2256;48.740;9.106;2023-08-20T00:50:33;16.83;;;10.50;;
4486;SDS011;2256;48.740;9.106;2023-08-20T00:53:00;14.30;;;9.77;;
4486;SDS011;2256;48.740;9.106;2023-08-20T00:55:27;14.17;;;9.97;;
4486;SDS011;2256;48.740;9.106;2023-08-20T00:57:54;16.50;;;9.77;;
4486;SDS011;2256;48.740;9.106;2023-08-20T01:00:21;16.50;;;9.73;;
4486;SDS011;2256;48.740;9.106;2023-08-20T01:02:51;24.50;;;11.17;;
4486;SDS011;2256;48.740;9.106;2023-08-20T01:05:18;22.23;;;9.87;;
4486;SDS011;2256;48.740;9.106;2023-08-20T01:07:50;19.57;;;11.40;;
4486;SDS011;2256;48.740;9.106;2023-08-20T01:10:29;17.40;;;10.90;;
4486;SDS011;2256;48.740;9.106;2023-08-20T01:13:04;18.83;;;10.27;;
4486;SDS011;2256;48.740;9.106;2023-08-20T01:15:32;17.37;;;10.70;;
4486;SDS011;2256;48.740;9.106;2023-08-20T01:18:00;14.27;;;9.50;;
4486;SDS011;2256;48.740;9.106;2023-08-20T01:20:27;17.53;;;10.50;;
4486;SDS011;2256;48.740;9.106;2023-08-20T01:23:17;15.07;;;9.93;;
4486;SDS011;2256;48.740;9.106;2023-08-20T01:26:03;16.50;;;10.20;;
4486;SDS011;2256;48.740;9.106;2023-08-20T01:28:39;15.90;;;10.07;;
4486;SDS011;2256;48.740;9.106;2023-08-20T01:31:07;16.07;;;9.90;;
4486;SDS011;2256;48.740;9.106;2023-08-20T01:33:34;21.27;;;12.20;;
4486;SDS011;2256;48.740;9.106;2023-08-20T01:36:01;19.33;;;10.57;;
4486;SDS011;2256;48.740;9.106;2023-08-20T01:38:34;19.00;;;10.23;;
4486;SDS011;2256;48.740;9.106;2023-08-20T01:41:01;17.20;;;10.90;;
4486;SDS011;2256;48.740;9.106;2023-08-20T01:43:28;15.43;;;9.97;;
4486;SDS011;2256;48.740;9.106;2023-08-20T01:45:56;14.30;;;10.00;;
4486;SDS011;2256;48.740;9.106;2023-08-20T01:48:23;16.13;;;10.60;;
4486;SDS011;2256;48.740;9.106;2023-08-20T01:50:50;16.60;;;10.17;;
4486;SDS011;2256;48.740;9.106;2023-08-20T01:53:16;20.73;;;10.70;;
4486;SDS011;2256;48.740;9.106;2023-08-20T01:55:43;15.67;;;10.53;;
4486;SDS011;2256;48.740;9.106;2023-08-20T01:58:10;17.90;;;9.40;;
4486;SDS011;2256;48.740;9.106;2023-08-20T02:00:36;19.67;;;10.30;;
4486;SDS011;2256;48.740;9.106;2023-08-20T02:03:04;18.43;;;11.53;;
4486;SDS011;2256;48.740;9.106;2023-08-20T02:05:31;17.33;;;10.67;;
4486;SDS011;2256;48.740;9.106;2023-08-20T02:07:58;20.10;;;10.80;;
4486;SDS011;2256;48.740;9.106;2023-08-20T02:10:24;17.40;;;9.53;;
4486;SDS011;2256;48.740;9.106;2023-08-20T02:12:51;19.40;;;11.60;;
4486;SDS011;2256;48.740;9.106;2023-08-20T02:15:18;21.90;;;10.60;;
4486;SDS011;2256;48.740;9.106;2023-08-20T02:17:44;17.83;;;10.40;;
4486;SDS011;2256;48.740;9.106;2023-08-20T02:20:13;12.53;;;9.30;;
4486;SDS011;2256;48.740;9.106;2023-08-20T02:22:40;14.87;;;9.57;;
4486;SDS011;2256;48.740;9.106;2023-08-20T02:25:07;18.37;;;10.70;;
4486;SDS011;2256;48.740;9.106;2023-08-20T02:27:34;14.80;;;10.13;;
4486;SDS011;2256;48.740;9.106;2023-08-20T02:30:00;19.20;;;10.53;;
4486;SDS011;2256;48.740;9.106;2023-08-20T02:32:27;16.23;;;10.90;;
4486;SDS011;2256;48.740;9.106;2023-08-20T02:34:55;24.43;;;10.87;;
4486;SDS011;2256;48.740;9.106;2023-08-20T02:37:23;19.57;;;10.47;;
4486;SDS011;2256;48.740;9.106;2023-08-20T02:39:49;24.67;;;11.70;;
4486;SDS011;2256;48.740;9.106;2023-08-20T02:42:16;19.53;;;11.30;;
4486;SDS011;2256;48.740;9.106;2023-08-20T02:44:43;15.90;;;10.63;;
4486;SDS011;2256;48.740;9.106;2023-08-20T02:47:09;16.17;;;10.20;;
4486;SDS011;2256;48.740;9.106;2023-08-20T02:49:36;18.60;;;9.80;;
4486;SDS011;2256;48.740;9.106;2023-08-20T02:52:03;24.13;;;11.40;;
4486;SDS011;2256;48.740;9.106;2023-08-20T02:54:31;17.20;;;10.03;;
4486;SDS011;2256;48.740;9.106;2023-08-20T02:56:59;18.53;;;11.10;;
4486;SDS011;2256;48.740;9.106;2023-08-20T02:59:26;17.10;;;11.00;;
4486;SDS011;2256;48.740;9.106;2023-08-20T03:01:52;17.67;;;10.97;;
4486;SDS011;2256;48.740;9.106;2023-08-20T03:04:19;17.50;;;10.80;;
4486;SDS011;2256;48.740;9.106;2023-08-20T03:06:46;17.17;;;11.87;;
4486;SDS011;2256;48.740;9.106;2023-08-20T03:09:12;18.80;;;11.70;;
4486;SDS011;2256;48.740;9.106;2023-08-20T03:11:40;18.40;;;11.37;;
4486;SDS011;2256;48.740;9.106;2023-08-20T03:14:07;19.50;;;11.47;;
4486;SDS011;2256;48.740;9.106;2023-08-20T03:16:34;16.33;;;10.10;;
4486;SDS011;2256;48.740;9.106;2023-08-20T03:19:01;19.40;;;11.90;;
4486;SDS011;2256;48.740;9.106;2023-08-20T03:21:28;15.47;;;10.30;;
4486;SDS011;2256;48.740;9.106;2023-08-20T03:23:54;16.13;;;11.07;;
4486;SDS011;2256;48.740;9.106;2023-08-20T03:26:21;15.30;;;10.13;;
4486;SDS011;2256;48.740;9.106;2023-08-20T03:28:49;16.63;;;10.50;;
4486;SDS011;2256;48.740;9.106;2023-08-20T03:31:16;17.03;;;9.77;;
4486;SDS011;2256;48.740;9.106;2023-08-20T03:33:43;22.03;;;10.40;;
4486;SDS011;2256;48.740;9.106;2023-08-20T03:36:09;17.27;;;11.27;;
4486;SDS011;2256;48.740;9.106;2023-08-20T03:38:36;16.33;;;10.83;;
4486;SDS011;2256;48.740;9.106;2023-08-20T03:41:03;15.17;;;10.43;;
4486;SDS011;2256;48.740;9.106;2023-08-20T03:43:29;16.17;;;10.67;;
4486;SDS011;2256;48.740;9.106;2023-08-20T03:45:58;18.00;;;11.10;;
4486;SDS011;2256;48.740;9.106;2023-08-20T03:48:24;16.33;;;11.10;;
4486;SDS011;2256;48.740;9.106;2023-08-20T03:50:51;19.90;;;10.90;;
4486;SDS011;2256;48.740;9.106;2023-08-20T03:53:18;17.13;;;10.87;;
4486;SDS011;2256;48.740;9.106;2023-08-20T03:55:47;16.17;;;10.67;;
4486;SDS011;2256;48.740;9.106;2023-08-20T03:58:15;16.73;;;10.93;;
4486;SDS011;2256;48.740;9.106;2023-08-20T04:00:43;19.27;;;10.63;;
4486;SDS011;2256;48.740;9.106;2023-08-20T04:03:11;19.27;;;11.13;;
4486;SDS011;2256;48.740;9.106;2023-08-20T04:05:38;18.20;;;11.17;;
4486;SDS011;2256;48.740;9.106;2023-08-20T04:08:05;27.30;;;11.93;;
4486;SDS011;2256;48.740;9.106;2023-08-20T04:10:32;17.87;;;11.77;;
4486;SDS011;2256;48.740;9.106;2023-08-20T04:12:59;21.30;;;11.60;;
4486;SDS011;2256;48.740;9.106;2023-08-20T04:15:26;17.10;;;11.10;;
4486;SDS011;2256;48.740;9.106;2023-08-20T04:17:52;20.63;;;11.87;;
4486;SDS011;2256;48.740;9.106;2023-08-20T04:20:20;19.50;;;10.37;;
4486;SDS011;2256;48.740;9.106;2023-08-20T04:22:48;15.60;;;10.60;;
4486;SDS011;2256;48.740;9.106;2023-08-20T04:25:14;14.40;;;10.13;;
4486;SDS011;2256;48.740;9.106;2023-08-20T04:27:41;21.60;;;11.03;;
4486;SDS011;2256;48.740;9.106;2023-08-20T04:30:08;17.80;;;10.10;;
4486;SDS011;2256;48.740;9.106;2023-08-20T04:32:36;20.00;;;10.00;;
4486;SDS011;2256;48.740;9.106;2023-08-20T04:35:03;14.67;;;10.10;;
4486;SDS011;2256;48.740;9.106;2023-08-20T04:37:32;15.70;;;9.80;;
4486;SDS011;2256;48.740;9.106;2023-08-20T04:39:58;19.83;;;10.63;;
4486;SDS011;2256;48.740;9.106;2023-08-20T04:42:25;14.47;;;9.23;;
4486;SDS011;2256;48.740;9.106;2023-08-20T04:44:52;17.77;;;9.93;;
4486;SDS011;2256;48.740;9.106;2023-08-20T04:47:18;19.13;;;10.40;;
4486;SDS011;2256;48.740;9.106;2023-08-20T04:49:45;15.13;;;10.03;;
4486;SDS011;2256;48.740;9.106;2023-08-20T04:52:12;16.87;;;10.27;;
4486;SDS011;2256;48.740;9.106;2023-08-20T04:54:40;16.07;;;10.03;;
4486;SDS011;2256;48.740;9.106;2023-08-20T04:57:06;15.03;;;9.40;;
4486;SDS011;2256;48.740;9.106;2023-08-20T04:59:33;15.97;;;9.90;;
4486;SDS011;2256;48.740;9.106;2023-08-20T05:02:00;20.77;;;10.87;;
4486;SDS011;2256;48.740;9.106;2023-08-20T05:04:26;13.43;;;9.87;;
4486;SDS011;2256;48.740;9.106;2023-08-20T05:06:53;25.33;;;10.50;;
4486;SDS011;2256;48.740;9.106;2023-08-20T05:09:20;17.00;;;10.27;;
4486;SDS011;2256;48.740;9.106;2023-08-20T05:11:48;16.13;;;9.90;;
4486;SDS011;2256;48.740;9.106;2023-08-20T05:14:15;14.17;;;9.33;;
4486;SDS011;2256;48.740;9.106;2023-08-20T05:16:42;13.83;;;9.73;;
4486;SDS011;2256;48.740;9.106;2023-08-20T05:19:08;15.30;;;9.10;;
4486;SDS011;2256;48.740;9.106;2023-08-20T05:21:35;15.63;;;9.73;;
4486;SDS011;2256;48.740;9.106;2023-08-20T05:24:02;13.90;;;9.70;;
4486;SDS011;2256;48.740;9.106;2023-08-20T05:26:29;17.00;;;10.67;;
4486;SDS011;2256;48.740;9.106;2023-08-20T05:28:57;12.50;;;9.00;;
4486;SDS011;2256;48.740;9.106;2023-08-20T05:31:24;15.17;;;9.80;;
4486;SDS011;2256;48.740;9.106;2023-08-20T05:33:51;16.03;;;9.80;;
4486;SDS011;2256;48.740;9.106;2023-08-20T05:36:18;18.60;;;11.10;;
4486;SDS011;2256;48.740;9.106;2023-08-20T05:38:44;19.47;;;11.17;;
4486;SDS011;2256;48.740;9.106;2023-08-20T05:41:11;19.20;;;10.90;;
4486;SDS011;2256;48.740;9.106;2023-08-20T05:43:38;15.23;;;9.87;;
4486;SDS011;2256;48.740;9.106;2023-08-20T05:46:06;17.30;;;10.83;;
4486;SDS011;2256;48.740;9.106;2023-08-20T05:48:33;14.17;;;9.67;;
4486;SDS011;2256;48.740;9.106;2023-08-20T05:50:59;16.73;;;10.50;;
4486;SDS011;2256;48.740;9.106;2023-08-20T05:53:26;16.23;;;10.70;;
4486;SDS011;2256;48.740;9.106;2023-08-20T05:55:53;15.77;;;10.23;;
4486;SDS011;2256;48.740;9.106;2023-08-20T05:58:20;15.27;;;9.40;;
4486;SDS011;2256;48.740;9.106;2023-08-20T06:00:47;20.37;;;9.67;;
4486;SDS011;2256;48.740;9.106;2023-08-20T06:03:15;16.67;;;9.97;;
4486;SDS011;2256;48.740;9.106;2023-08-20T06:05:41;14.03;;;9.03;;
4486;SDS011;2256;48.740;9.106;2023-08-20T06:08:08;13.97;;;9.53;;
4486;SDS011;2256;48.740;9.106;2023-08-20T06:10:36;14.80;;;9.10;;
4486;SDS011;2256;48.740;9.106;2023-08-20T06:13:03;15.63;;;10.70;;
4486;SDS011;2256;48.740;9.106;2023-08-20T06:15:30;17.03;;;10.27;;
4486;SDS011;2256;48.740;9.106;2023-08-20T06:17:56;13.87;;;10.57;;
4486;SDS011;2256;48.740;9.106;2023-08-20T06:20:24;21.77;;;10.17;;
4486;SDS011;2256;48.740;9.106;2023-08-20T06:22:51;12.60;;;10.17;;
4486;SDS011;2256;48.740;9.106;2023-08-20T06:25:18;14.43;;;9.07;;
4486;SDS011;2256;48.740;9.106;2023-08-20T06:27:45;18.73;;;10.80;;
4486;SDS011;2256;48.740;9.106;2023-08-20T06:30:12;14.77;;;9.97;;
4486;SDS011;2256;48.740;9.106;2023-08-20T06:32:39;16.83;;;10.00;;
4486;SDS011;2256;48.740;9.106;2023-08-20T06:35:06;14.73;;;9.60;;
4486;SDS011;2256;48.740;9.106;2023-08-20T06:37:36;19.97;;;10.57;;
4486;SDS011;2256;48.740;9.106;2023-08-20T06:40:05;12.43;;;9.63;;
4486;SDS011;2256;48.740;9.106;2023-08-20T06:42:32;11.40;;;8.70;;
4486;SDS011;2256;48.740;9.106;2023-08-20T06:44:59;17.47;;;9.00;;
4486;SDS011;2256;48.740;9.106;2023-08-20T06:47:25;12.40;;;8.20;;
4486;SDS011;2256;48.740;9.106;2023-08-20T06:49:53;12.97;;;9.43;;
4486;SDS011;2256;48.740;9.106;2023-08-20T06:52:20;13.40;;;8.00;;
4486;SDS011;2256;48.740;9.106;2023-08-20T06:54:48;16.43;;;8.23;;
4486;SDS011;2256;48.740;9.106;2023-08-20T06:57:14;11.27;;;8.30;;
4486;SDS011;2256;48.740;9.106;2023-08-20T06:59:41;9.60;;;7.67;;
4486;SDS011;2256;48.740;9.106;2023-08-20T07:02:08;11.30;;;7.10;;
4486;SDS011;2256;48.740;9.106;2023-08-20T07:04:36;10.70;;;7.20;;
4486;SDS011;2256;48.740;9.106;2023-08-20T07:07:02;11.10;;;7.30;;
4486;SDS011;2256;48.740;9.106;2023-08-20T07:09:30;10.00;;;7.73;;
4486;SDS011;2256;48.740;9.106;2023-08-20T07:11:59;8.30;;;6.73;;
4486;SDS011;2256;48.740;9.106;2023-08-20T07:14:26;9.07;;;6.70;;
4486;SDS011;2256;48.740;9.106;2023-08-20T07:16:52;12.13;;;7.90;;
4486;SDS011;2256;48.740;9.106;2023-08-20T07:19:19;10.23;;;6.20;;
4486;SDS011;2256;48.740;9.106;2023-08-20T07:21:46;9.07;;;6.93;;
4486;SDS011;2256;48.740;9.106;2023-08-20T07:24:12;9.83;;;6.87;;
4486;SDS011;2256;48.740;9.106;2023-08-20T07:26:39;7.70;;;6.90;;
4486;SDS011;2256;48.740;9.106;2023-08-20T07:29:07;8.57;;;6.40;;
4486;SDS011;2256;48.740;9.106;2023-08-20T07:31:34;8.00;;;6.77;;
4486;SDS011;2256;48.740;9.106;2023-08-20T07:34:02;13.03;;;5.47;;
4486;SDS011;2256;48.740;9.106;2023-08-20T07:36:29;8.87;;;6.40;;
4486;SDS011;2256;48.740;9.106;2023-08-20T07:38:56;13.70;;;6.40;;
4486;SDS011;2256;48.740;9.106;2023-08-20T07:41:22;7.53;;;6.07;;
4486;SDS011;2256;48.740;9.106;2023-08-20T07:43:49;11.63;;;6.27;;
4486;SDS011;2256;48.740;9.106;2023-08-20T07:46:17;8.03;;;5.87;;
4486;SDS011;2256;48.740;9.106;2023-08-20T07:48:44;9.03;;;6.30;;
4486;SDS011;2256;48.740;9.106;2023-08-20T07:51:11;6.87;;;6.17;;
4486;SDS011;2256;48.740;9.106;2023-08-20T07:53:38;11.13;;;6.20;;
4486;SDS011;2256;48.740;9.106;2023-08-20T07:56:04;8.53;;;6.57;;
4486;SDS011;2256;48.740;9.106;2023-08-20T07:58:31;9.10;;;6.47;;
4486;SDS011;2256;48.740;9.106;2023-08-20T08:00:58;8.80;;;6.40;;
4486;SDS011;2256;48.740;9.106;2023-08-20T08:03:26;7.53;;;6.13;;
4486;SDS011;2256;48.740;9.106;2023-08-20T08:05:53;8.00;;;6.50;;
4486;SDS011;2256;48.740;9.106;2023-08-20T08:08:20;13.10;;;6.80;;
4486;SDS011;2256;48.740;9.106;2023-08-20T08:10:47;11.60;;;6.63;;
4486;SDS011;2256;48.740;9.106;2023-08-20T08:13:15;8.17;;;6.40;;
4486;SDS011;2256;48.740;9.106;2023-08-20T08:15:44;8.23;;;6.50;;
4486;SDS011;2256;48.740;9.106;2023-08-20T08:18:11;7.23;;;6.27;;
4486;SDS011;2256;48.740;9.106;2023-08-20T08:20:40;13.83;;;7.70;;
4486;SDS011;2256;48.740;9.106;2023-08-20T08:23:07;10.07;;;7.27;;
4486;SDS011;2256;48.740;9.106;2023-08-20T08:25:34;11.33;;;7.47;;
4486;SDS011;2256;48.740;9.106;2023-08-20T08:28:00;10.83;;;6.60;;
4486;SDS011;2256;48.740;9.106;2023-08-20T08:30:30;8.53;;;7.33;;
4486;SDS011;2256;48.740;9.106;2023-08-20T08:32:57;8.00;;;6.47;;
4486;SDS011;2256;48.740;9.106;2023-08-20T08:35:24;11.07;;;6.80;;
4486;SDS011;2256;48.740;9.106;2023-08-20T08:37:54;12.33;;;7.10;;
4486;SDS011;2256;48.740;9.106;2023-08-20T08:40:22;7.60;;;6.63;;
4486;SDS011;2256;48.740;9.106;2023-08-20T08:42:52;6.80;;;6.10;;
4486;SDS011;2256;48.740;9.106;2023-08-20T08:45:20;9.80;;;7.40;;
4486;SDS011;2256;48.740;9.106;2023-08-20T08:47:47;10.97;;;7.70;;
4486;SDS011;2256;48.740;9.106;2023-08-20T08:50:15;14.10;;;7.90;;
4486;SDS011;2256;48.740;9.106;2023-08-20T08:52:42;7.73;;;6.93;;
4486;SDS011;2256;48.740;9.106;2023-08-20T08:55:14;8.90;;;7.40;;
4486;SDS011;2256;48.740;9.106;2023-08-20T08:57:41;9.93;;;7.50;;
4486;SDS011;2256;48.740;9.106;2023-08-20T09:00:08;10.30;;;7.60;;
4486;SDS011;2256;48.740;9.106;2023-08-20T09:02:35;8.43;;;7.50;;
4486;SDS011;2256;48.740;9.106;2023-08-20T09:05:02;10.90;;;7.40;;
4486;SDS011;2256;48.740;9.106;2023-08-20T09:07:31;6.77;;;6.10;;
4486;SDS011;2256;48.740;9.106;2023-08-20T09:09:58;8.37;;;6.67;;
4486;SDS011;2256;48.740;9.106;2023-08-20T09:12:27;9.90;;;7.03;;
4486;SDS011;2256;48.740;9.106;2023-08-20T09:14:55;10.13;;;6.40;;
4486;SDS011;2256;48.740;9.106;2023-08-20T09:17:25;9.30;;;6.97;;
4486;SDS011;2256;48.740;9.106;2023-08-20T09:19:55;12.43;;;6.97;;
4486;SDS011;2256;48.740;9.106;2023-08-20T09:22:23;8.10;;;6.33;;
4486;SDS011;2256;48.740;9.106;2023-08-20T09:24:53;8.90;;;6.60;;
4486;SDS011;2256;48.740;9.106;2023-08-20T09:27:21;10.30;;;7.00;;
4486;SDS011;2256;48.740;9.106;2023-08-20T09:29:50;12.20;;;6.97;;
4486;SDS011;2256;48.740;9.106;2023-08-20T09:32:18;9.07;;;7.60;;
4486;SDS011;2256;48.740;9.106;2023-08-20T09:34:47;7.50;;;6.67;;
4486;SDS011;2256;48.740;9.106;2023-08-20T09:37:14;11.63;;;6.83;;
4486;SDS011;2256;48.740;9.106;2023-08-20T09:39:42;7.63;;;6.57;;
4486;SDS011;2256;48.740;9.106;2023-08-20T09:42:09;9.40;;;6.23;;
4486;SDS011;2256;48.740;9.106;2023-08-20T09:44:37;9.63;;;7.00;;
4486;SDS011;2256;48.740;9.106;2023-08-20T09:47:07;9.30;;;6.50;;
4486;SDS011;2256;48.740;9.106;2023-08-20T09:49:37;11.13;;;7.13;;
4486;SDS011;2256;48.740;9.106;2023-08-20T09:52:06;8.33;;;6.70;;
4486;SDS011;2256;48.740;9.106;2023-08-20T09:54:36;9.10;;;6.33;;
4486;SDS011;2256;48.740;9.106;2023-08-20T09:57:19;10.70;;;6.27;;
4486;SDS011;2256;48.740;9.106;2023-08-20T09:59:53;9.70;;;6.50;;
4486;SDS011;2256;48.740;9.106;2023-08-20T10:02:21;8.50;;;6.87;;
4486;SDS011;2256;48.740;9.106;2023-08-20T10:04:48;6.60;;;5.90;;
4486;SDS011;2256;48.740;9.106;2023-08-20T10:07:16;8.90;;;6.00;;
4486;SDS011;2256;48.740;9.106;2023-08-20T10:09:44;7.97;;;6.33;;
4486;SDS011;2256;48.740;9.106;2023-08-20T10:12:15;8.00;;;6.10;;
4486;SDS011;2256;48.740;9.106;2023-08-20T10:14:42;7.27;;;6.37;;
4486;SDS011;2256;48.740;9.106;2023-08-20T10:17:09;9.03;;;7.60;;
4486;SDS011;2256;48.740;9.106;2023-08-20T10:19:39;9.60;;;7.37;;
4486;SDS011;2256;48.740;9.106;2023-08-20T10:22:07;9.07;;;7.20;;
4486;SDS011;2256;48.740;9.106;2023-08-20T10:24:41;7.97;;;6.57;;
4486;SDS011;2256;48.740;9.106;2023-08-20T10:27:13;11.20;;;8.17;;
4486;SDS011;2256;48.740;9.106;2023-08-20T10:29:50;12.97;;;8.50;;
4486;SDS011;2256;48.740;9.106;2023-08-20T10:32:19;16.10;;;7.93;;
4486;SDS011;2256;48.740;9.106;2023-08-20T10:34:50;12.00;;;7.87;;
4486;SDS011;2256;48.740;9.106;2023-08-20T10:37:25;8.57;;;6.77;;
4486;SDS011;2256;48.740;9.106;2023-08-20T10:39:54;9.73;;;6.43;;
4486;SDS011;2256;48.740;9.106;2023-08-20T10:42:26;15.23;;;6.40;;
4486;SDS011;2256;48.740;9.106;2023-08-20T10:44:57;12.20;;;6.60;;
4486;SDS011;2256;48.740;9.106;2023-08-20T10:47:36;9.50;;;6.27;;
4486;SDS011;2256;48.740;9.106;2023-08-20T10:50:05;11.13;;;6.67;;
4486;SDS011;2256;48.740;9.106;2023-08-20T10:52:38;7.30;;;5.90;;
4486;SDS011;2256;48.740;9.106;2023-08-20T10:55:06;9.07;;;6.90;;
4486;SDS011;2256;48.740;9.106;2023-08-20T10:57:34;12.47;;;6.90;;
4486;SDS011;2256;48.740;9.106;2023-08-20T11:00:01;7.63;;;6.63;;
4486;SDS011;2256;48.740;9.106;2023-08-20T11:02:36;10.70;;;6.63;;
4486;SDS011;2256;48.740;9.106;2023-08-20T11:05:09;10.10;;;6.40;;
4486;SDS011;2256;48.740;9.106;2023-08-20T11:07:43;9.37;;;6.57;;
4486;SDS011;2256;48.740;9.106;2023-08-20T11:10:12;11.50;;;7.40;;
4486;SDS011;2256;48.740;9.106;2023-08-20T11:12:39;9.07;;;6.37;;
4486;SDS011;2256;48.740;9.106;2023-08-20T11:15:07;7.60;;;6.27;;
4486;SDS011;2256;48.740;9.106;2023-08-20T11:17:39;7.97;;;6.73;;
4486;SDS011;2256;48.740;9.106;2023-08-20T11:20:08;7.90;;;6.40;;
4486;SDS011;2256;48.740;9.106;2023-08-20T11:22:37;17.97;;;6.60;;
4486;SDS011;2256;48.740;9.106;2023-08-20T11:25:05;13.87;;;6.70;;
4486;SDS011;2256;48.740;9.106;2023-08-20T11:27:39;7.40;;;6.57;;
4486;SDS011;2256;48.740;9.106;2023-08-20T11:30:07;11.93;;;6.50;;
4486;SDS011;2256;48.740;9.106;2023-08-20T11:32:35;10.33;;;7.03;;
4486;SDS011;2256;48.740;9.106;2023-08-20T11:35:02;10.07;;;6.43;;
4486;SDS011;2256;48.740;9.106;2023-08-20T11:37:33;8.63;;;7.30;;
4486;SDS011;2256;48.740;9.106;2023-08-20T11:40:00;9.03;;;7.10;;
4486;SDS011;2256;48.740;9.106;2023-08-20T11:42:26;7.87;;;6.40;;
4486;SDS011;2256;48.740;9.106;2023-08-20T11:44:55;6.97;;;6.07;;
4486;SDS011;2256;48.740;9.106;2023-08-20T11:47:22;12.97;;;6.87;;
4486;SDS011;2256;48.740;9.106;2023-08-20T11:50:01;7.83;;;6.40;;
4486;SDS011;2256;48.740;9.106;2023-08-20T11:52:29;10.30;;;6.67;;
4486;SDS011;2256;48.740;9.106;2023-08-20T11:54:58;13.97;;;6.80;;
4486;SDS011;2256;48.740;9.106;2023-08-20T11:57:25;11.83;;;6.53;;
4486;SDS011;2256;48.740;9.106;2023-08-20T11:59:52;9.60;;;6.30;;
4486;SDS011;2256;48.740;9.106;2023-08-20T12:02:24;10.00;;;6.53;;
4486;SDS011;2256;48.740;9.106;2023-08-20T12:04:51;9.53;;;6.77;;
4486;SDS011;2256;48.740;9.106;2023-08-20T12:07:24;15.70;;;7.00;;
4486;SDS011;2256;48.740;9.106;2023-08-20T12:09:52;8.37;;;6.80;;
4486;SDS011;2256;48.740;9.106;2023-08-20T12:12:21;9.67;;;7.33;;
4486;SDS011;2256;48.740;9.106;2023-08-20T12:14:48;12.83;;;6.80;;
4486;SDS011;2256;48.740;9.106;2023-08-20T12:17:16;12.40;;;6.97;;
4486;SDS011;2256;48.740;9.106;2023-08-20T12:19:43;10.10;;;6.87;;
4486;SDS011;2256;48.740;9.106;2023-08-20T12:22:10;9.77;;;7.03;;
4486;SDS011;2256;48.740;9.106;2023-08-20T12:24:37;9.73;;;7.43;;
4486;SDS011;2256;48.740;9.106;2023-08-20T12:27:04;10.57;;;6.27;;
4486;SDS011;2256;48.740;9.106;2023-08-20T12:29:32;9.47;;;6.70;;
4486;SDS011;2256;48.740;9.106;2023-08-20T12:31:59;9.63;;;6.83;;
4486;SDS011;2256;48.740;9.106;2023-08-20T12:34:26;8.10;;;6.20;;
4486;SDS011;2256;48.740;9.106;2023-08-20T12:36:54;9.67;;;6.53;;
4486;SDS011;2256;48.740;9.106;2023-08-20T12:39:20;8.87;;;7.10;;
4486;SDS011;2256;48.740;9.106;2023-08-20T12:41:47;8.00;;;6.10;;
4486;SDS011;2256;48.740;9.106;2023-08-20T12:44:14;9.77;;;6.50;;
4486;SDS011;2256;48.740;9.106;2023-08-20T12:46:42;8.67;;;6.07;;
4486;SDS011;2256;48.740;9.106;2023-08-20T12:49:09;7.20;;;6.40;;
4486;SDS011;2256;48.740;9.106;2023-08-20T12:51:36;8.10;;;6.80;;
4486;SDS011;2256;48.740;9.106;2023-08-20T12:54:03;8.37;;;6.07;;
4486;SDS011;2256;48.740;9.106;2023-08-20T12:56:30;8.27;;;6.57;;
4486;SDS011;2256;48.740;9.106;2023-08-20T12:58:56;11.77;;;7.10;;
4486;SDS011;2256;48.740;9.106;2023-08-20T13:01:23;8.63;;;6.30;;
4486;SDS011;2256;48.740;9.106;2023-08-20T13:03:51;9.90;;;6.13;;
4486;SDS011;2256;48.740;9.106;2023-08-20T13:06:19;7.53;;;6.37;;
4486;SDS011;2256;48.740;9.106;2023-08-20T13:08:46;9.27;;;6.70;;
4486;SDS011;2256;48.740;9.106;2023-08-20T13:11:13;9.50;;;6.47;;
4486;SDS011;2256;48.740;9.106;2023-08-20T13:13:44;16.33;;;6.73;;
4486;SDS011;2256;48.740;9.106;2023-08-20T13:16:11;7.03;;;5.80;;
4486;SDS011;2256;48.740;9.106;2023-08-20T13:18:39;8.53;;;5.43;;
4486;SDS011;2256;48.740;9.106;2023-08-20T13:21:08;7.60;;;6.80;;
4486;SDS011;2256;48.740;9.106;2023-08-20T13:23:34;8.47;;;6.50;;
4486;SDS011;2256;48.740;9.106;2023-08-20T13:26:01;9.20;;;6.40;;
4486;SDS011;2256;48.740;9.106;2023-08-20T13:28:28;7.47;;;5.50;;
4486;SDS011;2256;48.740;9.106;2023-08-20T13:30:55;10.47;;;6.80;;
4486;SDS011;2256;48.740;9.106;2023-08-20T13:33:22;7.90;;;6.37;;
4486;SDS011;2256;48.740;9.106;2023-08-20T13:35:48;7.90;;;5.70;;
4486;SDS011;2256;48.740;9.106;2023-08-20T13:38:18;5.90;;;5.40;;
4486;SDS011;2256;48.740;9.106;2023-08-20T13:40:46;12.17;;;6.40;;
4486;SDS011;2256;48.740;9.106;2023-08-20T13:43:13;7.13;;;5.93;;
4486;SDS011;2256;48.740;9.106;2023-08-20T13:45:40;11.73;;;6.57;;
4486;SDS011;2256;48.740;9.106;2023-08-20T13:48:07;8.43;;;5.60;;
4486;SDS011;2256;48.740;9.106;2023-08-20T13:50:33;8.27;;;6.30;;
4486;SDS011;2256;48.740;9.106;2023-08-20T13:53:00;6.83;;;6.13;;
4486;SDS011;2256;48.740;9.106;2023-08-20T13:55:29;7.53;;;6.00;;
4486;SDS011;2256;48.740;9.106;2023-08-20T13:57:56;10.03;;;5.63;;
4486;SDS011;2256;48.740;9.106;2023-08-20T14:00:24;8.50;;;5.97;;
4486;SDS011;2256;48.740;9.106;2023-08-20T14:02:52;10.83;;;7.10;;
4486;SDS011;2256;48.740;9.106;2023-08-20T14:05:18;8.93;;;6.37;;
4486;SDS011;2256;48.740;9.106;2023-08-20T14:07:45;8.00;;;5.67;;
4486;SDS011;2256;48.740;9.106;2023-08-20T14:10:12;8.30;;;6.60;;
4486;SDS011;2256;48.740;9.106;2023-08-20T14:12:40;13.50;;;6.30;;
4486;SDS011;2256;48.740;9.106;2023-08-20T14:15:07;8.33;;;6.40;;
4486;SDS011;2256;48.740;9.106;2023-08-20T14:17:35;7.60;;;6.37;;
4486;SDS011;2256;48.740;9.106;2023-08-20T14:20:02;6.30;;;5.30;;
4486;SDS011;2256;48.740;9.106;2023-08-20T14:22:29;8.37;;;5.63;;
4486;SDS011;2256;48.740;9.106;2023-08-20T14:24:55;6.73;;;5.97;;
4486;SDS011;2256;48.740;9.106;2023-08-20T14:27:22;10.23;;;6.90;;
4486;SDS011;2256;48.740;9.106;2023-08-20T14:29:50;8.43;;;6.47;;
4486;SDS011;2256;48.740;9.106;2023-08-20T14:32:17;8.37;;;6.47;;
4486;SDS011;2256;48.740;9.106;2023-08-20T14:34:44;14.40;;;6.77;;
4486;SDS011;2256;48.740;9.106;2023-08-20T14:37:11;7.97;;;6.37;;
4486;SDS011;2256;48.740;9.106;2023-08-20T14:39:39;6.93;;;5.70;;
4486;SDS011;2256;48.740;9.106;2023-08-20T14:42:05;9.77;;;6.27;;
4486;SDS011;2256;48.740;9.106;2023-08-20T14:44:32;8.93;;;5.93;;
4486;SDS011;2256;48.740;9.106;2023-08-20T14:47:01;8.60;;;5.67;;
4486;SDS011;2256;48.740;9.106;2023-08-20T14:49:30;7.57;;;6.13;;
4486;SDS011;2256;48.740;9.106;2023-08-20T14:51:57;9.23;;;5.80;;
4486;SDS011;2256;48.740;9.106;2023-08-20T14:54:24;6.67;;;5.27;;
4486;SDS011;2256;48.740;9.106;2023-08-20T14:56:51;7.10;;;5.40;;
4486;SDS011;2256;48.740;9.106;2023-08-20T14:59:18;8.03;;;5.80;;
4486;SDS011;2256;48.740;9.106;2023-08-20T15:01:45;10.40;;;5.50;;
4486;SDS011;2256;48.740;9.106;2023-08-20T15:04:13;8.67;;;6.30;;
4486;SDS011;2256;48.740;9.106;2023-08-20T15:06:39;9.27;;;6.00;;